sensor_id;sensor_type;location;lat;lon;timestamp;P1;durP1;ratioP1;P2;durP2;ratioP2
495;SDS011;39559;48.630;9.162;2022-10-26T00:02:35;10.38;;;6.60;;
495;SDS011;39559;48.630;9.162;2022-10-26T00:05:01;6.85;;;6.22;;
495;SDS011;39559;48.630;9.162;2022-10-26T00:07:28;8.85;;;6.82;;
495;SDS011;39559;48.630;9.162;2022-10-26T00:09:55;9.23;;;7.03;;
495;SDS011;39559;48.630;9.162;2022-10-26T00:12:22;10.60;;;6.43;;
495;SDS011;39559;48.630;9.162;2022-10-26T00:16:12;10.07;;;6.50;;
495;SDS011;39559;48.630;9.162;2022-10-26T00:18:41;9.45;;;6.30;;
495;SDS011;39559;48.630;9.162;2022-10-26T00:21:08;8.52;;;6.60;;
495;SDS011;39559;48.630;9.162;2022-10-26T00:23:35;10.32;;;7.00;;
495;SDS011;39559;48.630;9.162;2022-10-26T00:26:01;7.10;;;6.40;;
495;SDS011;39559;48.630;9.162;2022-10-26T00:28:30;9.63;;;7.30;;
495;SDS011;39559;48.630;9.162;2022-10-26T00:31:00;7.63;;;6.70;;
495;SDS011;39559;48.630;9.162;2022-10-26T00:33:29;8.93;;;6.30;;
495;SDS011;39559;48.630;9.162;2022-10-26T00:36:00;11.57;;;8.20;;
495;SDS011;39559;48.630;9.162;2022-10-26T00:40:11;6.93;;;6.28;;
495;SDS011;39559;48.630;9.162;2022-10-26T00:42:37;7.00;;;6.30;;
495;SDS011;39559;48.630;9.162;2022-10-26T00:45:36;8.07;;;7.00;;
495;SDS011;39559;48.630;9.162;2022-10-26T00:47:58;8.98;;;6.32;;
495;SDS011;39559;48.630;9.162;2022-10-26T00:50:45;9.48;;;6.88;;
495;SDS011;39559;48.630;9.162;2022-10-26T00:53:12;11.02;;;6.45;;
495;SDS011;39559;48.630;9.162;2022-10-26T00:55:39;7.73;;;6.90;;
495;SDS011;39559;48.630;9.162;2022-10-26T00:58:08;7.40;;;6.60;;
495;SDS011;39559;48.630;9.162;2022-10-26T01:00:39;11.43;;;6.88;;
495;SDS011;39559;48.630;9.162;2022-10-26T01:04:09;9.60;;;6.80;;
495;SDS011;39559;48.630;9.162;2022-10-26T01:06:35;7.78;;;6.97;;
495;SDS011;39559;48.630;9.162;2022-10-26T01:09:02;11.95;;;6.53;;
495;SDS011;39559;48.630;9.162;2022-10-26T01:11:28;7.50;;;6.67;;
495;SDS011;39559;48.630;9.162;2022-10-26T01:13:54;9.03;;;7.23;;
495;SDS011;39559;48.630;9.162;2022-10-26T01:22:28;7.10;;;6.40;;
495;SDS011;39559;48.630;9.162;2022-10-26T01:28:54;6.72;;;6.15;;
495;SDS011;39559;48.630;9.162;2022-10-26T01:31:22;13.55;;;7.53;;
495;SDS011;39559;48.630;9.162;2022-10-26T01:34:09;9.90;;;6.50;;
495;SDS011;39559;48.630;9.162;2022-10-26T01:36:43;7.50;;;5.85;;
495;SDS011;39559;48.630;9.162;2022-10-26T01:39:15;9.80;;;6.60;;
495;SDS011;39559;48.630;9.162;2022-10-26T01:41:47;7.60;;;6.82;;
495;SDS011;39559;48.630;9.162;2022-10-26T01:44:23;12.50;;;6.88;;
495;SDS011;39559;48.630;9.162;2022-10-26T01:46:56;7.60;;;6.90;;
495;SDS011;39559;48.630;9.162;2022-10-26T01:49:27;7.63;;;6.93;;
495;SDS011;39559;48.630;9.162;2022-10-26T01:52:05;10.57;;;6.95;;
495;SDS011;39559;48.630;9.162;2022-10-26T01:54:36;12.40;;;6.55;;
495;SDS011;39559;48.630;9.162;2022-10-26T01:57:04;11.95;;;6.85;;
495;SDS011;39559;48.630;9.162;2022-10-26T02:05:28;11.98;;;6.75;;
495;SDS011;39559;48.630;9.162;2022-10-26T02:11:03;9.73;;;7.35;;
495;SDS011;39559;48.630;9.162;2022-10-26T02:19:04;9.57;;;7.10;;
495;SDS011;39559;48.630;9.162;2022-10-26T02:21:38;8.27;;;6.80;;
495;SDS011;39559;48.630;9.162;2022-10-26T02:24:14;11.38;;;6.60;;
495;SDS011;39559;48.630;9.162;2022-10-26T02:26:47;12.90;;;7.15;;
495;SDS011;39559;48.630;9.162;2022-10-26T02:29:21;9.32;;;7.22;;
495;SDS011;39559;48.630;9.162;2022-10-26T02:31:49;9.38;;;6.72;;
495;SDS011;39559;48.630;9.162;2022-10-26T02:34:20;9.63;;;6.15;;
495;SDS011;39559;48.630;9.162;2022-10-26T02:36:50;8.45;;;6.47;;
495;SDS011;39559;48.630;9.162;2022-10-26T02:40:05;6.82;;;6.22;;
495;SDS011;39559;48.630;9.162;2022-10-26T02:42:35;6.50;;;5.65;;
495;SDS011;39559;48.630;9.162;2022-10-26T02:45:05;7.72;;;6.25;;
495;SDS011;39559;48.630;9.162;2022-10-26T02:47:35;7.03;;;6.32;;
495;SDS011;39559;48.630;9.162;2022-10-26T02:50:00;7.13;;;6.43;;
495;SDS011;39559;48.630;9.162;2022-10-26T02:52:49;7.68;;;6.88;;
495;SDS011;39559;48.630;9.162;2022-10-26T02:55:19;9.48;;;7.30;;
495;SDS011;39559;48.630;9.162;2022-10-26T02:58:00;10.10;;;6.63;;
495;SDS011;39559;48.630;9.162;2022-10-26T03:00:31;10.45;;;7.32;;
495;SDS011;39559;48.630;9.162;2022-10-26T03:04:01;8.82;;;6.65;;
495;SDS011;39559;48.630;9.162;2022-10-26T03:06:27;7.43;;;6.78;;
495;SDS011;39559;48.630;9.162;2022-10-26T03:08:53;12.03;;;6.90;;
495;SDS011;39559;48.630;9.162;2022-10-26T03:11:18;7.77;;;6.93;;
495;SDS011;39559;48.630;9.162;2022-10-26T03:13:44;7.37;;;6.67;;
495;SDS011;39559;48.630;9.162;2022-10-26T03:16:10;9.20;;;7.40;;
495;SDS011;39559;48.630;9.162;2022-10-26T03:18:36;12.40;;;7.33;;
495;SDS011;39559;48.630;9.162;2022-10-26T03:21:01;8.33;;;7.33;;
495;SDS011;39559;48.630;9.162;2022-10-26T03:23:30;9.87;;;7.23;;
495;SDS011;39559;48.630;9.162;2022-10-26T03:28:00;8.88;;;7.55;;
495;SDS011;39559;48.630;9.162;2022-10-26T03:30:28;7.38;;;6.78;;
495;SDS011;39559;48.630;9.162;2022-10-26T03:32:54;9.65;;;7.82;;
495;SDS011;39559;48.630;9.162;2022-10-26T03:35:20;10.57;;;8.03;;
495;SDS011;39559;48.630;9.162;2022-10-26T03:37:45;10.27;;;7.20;;
495;SDS011;39559;48.630;9.162;2022-10-26T03:40:11;9.87;;;6.80;;
495;SDS011;39559;48.630;9.162;2022-10-26T03:42:37;9.10;;;7.40;;
495;SDS011;39559;48.630;9.162;2022-10-26T03:45:05;7.70;;;6.90;;
495;SDS011;39559;48.630;9.162;2022-10-26T03:47:32;9.40;;;7.18;;
495;SDS011;39559;48.630;9.162;2022-10-26T03:51:57;15.85;;;7.47;;
495;SDS011;39559;48.630;9.162;2022-10-26T03:54:23;13.07;;;7.27;;
495;SDS011;39559;48.630;9.162;2022-10-26T03:56:49;9.90;;;7.60;;
495;SDS011;39559;48.630;9.162;2022-10-26T03:59:14;9.67;;;7.47;;
495;SDS011;39559;48.630;9.162;2022-10-26T04:01:40;11.50;;;7.23;;
495;SDS011;39559;48.630;9.162;2022-10-26T04:04:05;15.50;;;7.40;;
495;SDS011;39559;48.630;9.162;2022-10-26T04:06:31;11.93;;;7.80;;
495;SDS011;39559;48.630;9.162;2022-10-26T04:08:56;9.43;;;7.40;;
495;SDS011;39559;48.630;9.162;2022-10-26T04:11:29;8.98;;;7.72;;
495;SDS011;39559;48.630;9.162;2022-10-26T04:15:56;8.15;;;7.35;;
495;SDS011;39559;48.630;9.162;2022-10-26T04:18:22;7.90;;;7.10;;
495;SDS011;39559;48.630;9.162;2022-10-26T04:20:47;13.37;;;8.33;;
495;SDS011;39559;48.630;9.162;2022-10-26T04:23:14;8.13;;;7.43;;
495;SDS011;39559;48.630;9.162;2022-10-26T04:25:43;10.07;;;8.10;;
495;SDS011;39559;48.630;9.162;2022-10-26T04:28:10;9.50;;;7.70;;
495;SDS011;39559;48.630;9.162;2022-10-26T04:30:37;9.27;;;8.05;;
495;SDS011;39559;48.630;9.162;2022-10-26T04:33:03;9.57;;;8.00;;
495;SDS011;39559;48.630;9.162;2022-10-26T04:35:30;13.25;;;8.13;;
495;SDS011;39559;48.630;9.162;2022-10-26T04:39:54;15.23;;;8.40;;
495;SDS011;39559;48.630;9.162;2022-10-26T04:42:20;112.63;;;17.77;;
495;SDS011;39559;48.630;9.162;2022-10-26T04:44:46;13.13;;;7.97;;
495;SDS011;39559;48.630;9.162;2022-10-26T04:47:11;15.97;;;8.80;;
495;SDS011;39559;48.630;9.162;2022-10-26T04:49:36;11.83;;;8.57;;
495;SDS011;39559;48.630;9.162;2022-10-26T04:52:03;11.30;;;8.20;;
495;SDS011;39559;48.630;9.162;2022-10-26T04:54:30;24.45;;;9.63;;
495;SDS011;39559;48.630;9.162;2022-10-26T04:56:55;10.80;;;8.27;;
495;SDS011;39559;48.630;9.162;2022-10-26T04:59:20;38.47;;;11.40;;
495;SDS011;39559;48.630;9.162;2022-10-26T05:03:53;9.18;;;8.38;;
495;SDS011;39559;48.630;9.162;2022-10-26T05:06:19;9.73;;;7.70;;
495;SDS011;39559;48.630;9.162;2022-10-26T05:08:45;13.00;;;7.97;;
495;SDS011;39559;48.630;9.162;2022-10-26T05:11:11;9.33;;;7.37;;
495;SDS011;39559;48.630;9.162;2022-10-26T05:13:37;8.33;;;7.53;;
495;SDS011;39559;48.630;9.162;2022-10-26T05:16:03;7.57;;;6.80;;
495;SDS011;39559;48.630;9.162;2022-10-26T05:18:28;8.50;;;7.30;;
495;SDS011;39559;48.630;9.162;2022-10-26T05:20:54;12.63;;;7.30;;
495;SDS011;39559;48.630;9.162;2022-10-26T05:23:20;8.33;;;7.53;;
495;SDS011;39559;48.630;9.162;2022-10-26T05:27:55;7.63;;;6.93;;
495;SDS011;39559;48.630;9.162;2022-10-26T05:30:22;9.95;;;6.65;;
495;SDS011;39559;48.630;9.162;2022-10-26T05:32:54;9.77;;;7.80;;
495;SDS011;39559;48.630;9.162;2022-10-26T05:35:24;10.70;;;7.55;;
495;SDS011;39559;48.630;9.162;2022-10-26T05:37:50;39.28;;;12.20;;
495;SDS011;39559;48.630;9.162;2022-10-26T05:40:16;17.52;;;7.90;;
495;SDS011;39559;48.630;9.162;2022-10-26T05:42:42;8.93;;;8.10;;
495;SDS011;39559;48.630;9.162;2022-10-26T05:45:09;9.05;;;7.05;;
495;SDS011;39559;48.630;9.162;2022-10-26T05:47:41;9.52;;;7.30;;
495;SDS011;39559;48.630;9.162;2022-10-26T05:51:49;9.25;;;8.23;;
495;SDS011;39559;48.630;9.162;2022-10-26T05:54:14;9.03;;;8.17;;
495;SDS011;39559;48.630;9.162;2022-10-26T05:56:40;8.97;;;8.07;;
495;SDS011;39559;48.630;9.162;2022-10-26T05:59:10;9.73;;;7.90;;
495;SDS011;39559;48.630;9.162;2022-10-26T06:04:29;8.70;;;7.80;;
495;SDS011;39559;48.630;9.162;2022-10-26T06:06:57;8.80;;;8.00;;
495;SDS011;39559;48.630;9.162;2022-10-26T06:09:23;9.32;;;8.43;;
495;SDS011;39559;48.630;9.162;2022-10-26T06:11:49;9.43;;;8.53;;
495;SDS011;39559;48.630;9.162;2022-10-26T06:15:52;10.15;;;8.88;;
495;SDS011;39559;48.630;9.162;2022-10-26T06:18:34;11.95;;;10.35;;
495;SDS011;39559;48.630;9.162;2022-10-26T06:21:30;11.27;;;9.38;;
495;SDS011;39559;48.630;9.162;2022-10-26T06:24:23;9.90;;;8.60;;
495;SDS011;39559;48.630;9.162;2022-10-26T06:32:31;10.88;;;9.77;;
495;SDS011;39559;48.630;9.162;2022-10-26T06:35:23;10.38;;;9.00;;
495;SDS011;39559;48.630;9.162;2022-10-26T06:39:47;9.68;;;8.05;;
495;SDS011;39559;48.630;9.162;2022-10-26T06:42:14;11.60;;;8.32;;
495;SDS011;39559;48.630;9.162;2022-10-26T06:44:40;10.03;;;9.03;;
495;SDS011;39559;48.630;9.162;2022-10-26T06:47:09;9.35;;;8.45;;
495;SDS011;39559;48.630;9.162;2022-10-26T06:52:25;12.82;;;10.93;;
495;SDS011;39559;48.630;9.162;2022-10-26T06:55:00;12.20;;;9.32;;
495;SDS011;39559;48.630;9.162;2022-10-26T06:57:31;10.87;;;9.40;;
495;SDS011;39559;48.630;9.162;2022-10-26T07:00:01;12.43;;;11.13;;
495;SDS011;39559;48.630;9.162;2022-10-26T07:03:45;15.10;;;9.82;;
495;SDS011;39559;48.630;9.162;2022-10-26T07:06:11;10.37;;;9.37;;
495;SDS011;39559;48.630;9.162;2022-10-26T07:08:36;15.03;;;13.33;;
495;SDS011;39559;48.630;9.162;2022-10-26T07:11:02;15.60;;;14.00;;
495;SDS011;39559;48.630;9.162;2022-10-26T07:13:28;18.23;;;16.25;;
495;SDS011;39559;48.630;9.162;2022-10-26T07:15:54;19.37;;;17.40;;
495;SDS011;39559;48.630;9.162;2022-10-26T07:18:19;17.07;;;15.40;;
495;SDS011;39559;48.630;9.162;2022-10-26T07:20:45;12.57;;;10.37;;
495;SDS011;39559;48.630;9.162;2022-10-26T07:23:11;10.80;;;9.73;;
495;SDS011;39559;48.630;9.162;2022-10-26T07:27:44;11.10;;;9.82;;
495;SDS011;39559;48.630;9.162;2022-10-26T07:30:09;11.97;;;10.77;;
495;SDS011;39559;48.630;9.162;2022-10-26T07:32:35;12.10;;;11.00;;
495;SDS011;39559;48.630;9.162;2022-10-26T07:35:00;14.03;;;12.63;;
495;SDS011;39559;48.630;9.162;2022-10-26T07:37:26;15.23;;;13.63;;
495;SDS011;39559;48.630;9.162;2022-10-26T07:39:52;13.67;;;12.27;;
495;SDS011;39559;48.630;9.162;2022-10-26T07:42:17;13.90;;;12.60;;
495;SDS011;39559;48.630;9.162;2022-10-26T07:44:43;14.83;;;13.33;;
495;SDS011;39559;48.630;9.162;2022-10-26T07:47:09;16.00;;;14.30;;
495;SDS011;39559;48.630;9.162;2022-10-26T07:51:41;18.83;;;13.05;;
495;SDS011;39559;48.630;9.162;2022-10-26T07:54:07;13.33;;;12.07;;
495;SDS011;39559;48.630;9.162;2022-10-26T07:56:32;13.57;;;12.30;;
495;SDS011;39559;48.630;9.162;2022-10-26T07:58:58;14.47;;;13.07;;
495;SDS011;39559;48.630;9.162;2022-10-26T08:01:23;18.00;;;14.20;;
495;SDS011;39559;48.630;9.162;2022-10-26T08:03:53;13.20;;;11.90;;
495;SDS011;39559;48.630;9.162;2022-10-26T08:06:22;13.27;;;11.95;;
495;SDS011;39559;48.630;9.162;2022-10-26T08:08:48;13.43;;;12.13;;
495;SDS011;39559;48.630;9.162;2022-10-26T08:11:14;14.37;;;11.47;;
495;SDS011;39559;48.630;9.162;2022-10-26T08:15:40;8.98;;;6.90;;
495;SDS011;39559;48.630;9.162;2022-10-26T08:18:06;11.70;;;7.47;;
495;SDS011;39559;48.630;9.162;2022-10-26T08:20:32;7.67;;;6.87;;
495;SDS011;39559;48.630;9.162;2022-10-26T08:22:58;7.93;;;6.22;;
495;SDS011;39559;48.630;9.162;2022-10-26T08:25:25;5.93;;;5.32;;
495;SDS011;39559;48.630;9.162;2022-10-26T08:27:51;5.40;;;4.53;;
495;SDS011;39559;48.630;9.162;2022-10-26T08:30:18;5.70;;;4.60;;
495;SDS011;39559;48.630;9.162;2022-10-26T08:32:44;6.28;;;4.25;;
495;SDS011;39559;48.630;9.162;2022-10-26T08:35:10;5.07;;;4.40;;
495;SDS011;39559;48.630;9.162;2022-10-26T08:39:39;6.20;;;4.80;;
495;SDS011;39559;48.630;9.162;2022-10-26T08:42:12;8.23;;;4.33;;
495;SDS011;39559;48.630;9.162;2022-10-26T08:44:43;4.80;;;4.40;;
495;SDS011;39559;48.630;9.162;2022-10-26T08:50:24;7.68;;;4.45;;
495;SDS011;39559;48.630;9.162;2022-10-26T08:55:41;5.90;;;4.88;;
495;SDS011;39559;48.630;9.162;2022-10-26T08:58:13;8.70;;;4.63;;
495;SDS011;39559;48.630;9.162;2022-10-26T09:00:40;5.95;;;4.47;;
495;SDS011;39559;48.630;9.162;2022-10-26T09:03:37;4.15;;;3.80;;
495;SDS011;39559;48.630;9.162;2022-10-26T09:06:25;5.20;;;4.20;;
495;SDS011;39559;48.630;9.162;2022-10-26T09:09:06;6.15;;;4.78;;
495;SDS011;39559;48.630;9.162;2022-10-26T09:18:06;6.57;;;4.30;;
495;SDS011;39559;48.630;9.162;2022-10-26T09:20:53;4.82;;;3.97;;
495;SDS011;39559;48.630;9.162;2022-10-26T09:27:38;4.97;;;4.50;;
495;SDS011;39559;48.630;9.162;2022-10-26T09:30:17;5.78;;;4.13;;
495;SDS011;39559;48.630;9.162;2022-10-26T09:32:45;4.32;;;3.85;;
495;SDS011;39559;48.630;9.162;2022-10-26T09:35:18;5.55;;;3.88;;
495;SDS011;39559;48.630;9.162;2022-10-26T09:37:47;5.47;;;4.00;;
495;SDS011;39559;48.630;9.162;2022-10-26T09:40:30;4.10;;;3.70;;
495;SDS011;39559;48.630;9.162;2022-10-26T09:43:13;5.00;;;3.90;;
495;SDS011;39559;48.630;9.162;2022-10-26T09:45:50;4.73;;;3.80;;
495;SDS011;39559;48.630;9.162;2022-10-26T09:51:35;4.93;;;4.27;;
495;SDS011;39559;48.630;9.162;2022-10-26T09:54:13;3.97;;;3.57;;
495;SDS011;39559;48.630;9.162;2022-10-26T09:56:42;5.10;;;3.63;;
495;SDS011;39559;48.630;9.162;2022-10-26T09:59:11;5.93;;;4.00;;
495;SDS011;39559;48.630;9.162;2022-10-26T10:01:39;6.43;;;4.23;;
495;SDS011;39559;48.630;9.162;2022-10-26T10:06:40;5.93;;;4.10;;
495;SDS011;39559;48.630;9.162;2022-10-26T10:09:40;9.17;;;4.73;;
495;SDS011;39559;48.630;9.162;2022-10-26T10:12:02;6.27;;;4.23;;
495;SDS011;39559;48.630;9.162;2022-10-26T10:15:31;4.13;;;3.70;;
495;SDS011;39559;48.630;9.162;2022-10-26T10:17:56;5.57;;;3.53;;
495;SDS011;39559;48.630;9.162;2022-10-26T10:20:27;4.87;;;3.90;;
495;SDS011;39559;48.630;9.162;2022-10-26T10:22:57;5.40;;;4.00;;
495;SDS011;39559;48.630;9.162;2022-10-26T10:25:31;6.57;;;4.00;;
495;SDS011;39559;48.630;9.162;2022-10-26T10:27:59;7.40;;;4.20;;
495;SDS011;39559;48.630;9.162;2022-10-26T10:30:30;4.13;;;3.73;;
495;SDS011;39559;48.630;9.162;2022-10-26T10:33:07;6.40;;;4.20;;
495;SDS011;39559;48.630;9.162;2022-10-26T10:35:36;5.87;;;4.00;;
495;SDS011;39559;48.630;9.162;2022-10-26T10:39:33;6.80;;;4.07;;
495;SDS011;39559;48.630;9.162;2022-10-26T10:42:02;6.77;;;4.20;;
495;SDS011;39559;48.630;9.162;2022-10-26T10:44:31;7.10;;;4.40;;
495;SDS011;39559;48.630;9.162;2022-10-26T10:47:04;6.80;;;4.43;;
495;SDS011;39559;48.630;9.162;2022-10-26T10:49:31;5.90;;;4.00;;
495;SDS011;39559;48.630;9.162;2022-10-26T10:51:58;7.23;;;3.90;;
495;SDS011;39559;48.630;9.162;2022-10-26T10:57:10;7.83;;;4.20;;
495;SDS011;39559;48.630;9.162;2022-10-26T11:03:30;4.83;;;4.33;;
495;SDS011;39559;48.630;9.162;2022-10-26T11:06:14;4.53;;;3.47;;
495;SDS011;39559;48.630;9.162;2022-10-26T11:08:47;8.53;;;4.17;;
495;SDS011;39559;48.630;9.162;2022-10-26T11:12:02;8.27;;;4.47;;
495;SDS011;39559;48.630;9.162;2022-10-26T11:14:25;5.23;;;3.77;;
495;SDS011;39559;48.630;9.162;2022-10-26T11:16:55;6.03;;;4.17;;
495;SDS011;39559;48.630;9.162;2022-10-26T11:22:07;4.83;;;3.30;;
495;SDS011;39559;48.630;9.162;2022-10-26T11:27:45;5.23;;;3.93;;
495;SDS011;39559;48.630;9.162;2022-10-26T11:30:13;6.77;;;3.90;;
495;SDS011;39559;48.630;9.162;2022-10-26T11:32:43;7.97;;;4.20;;
495;SDS011;39559;48.630;9.162;2022-10-26T11:37:51;5.43;;;3.80;;
495;SDS011;39559;48.630;9.162;2022-10-26T11:43:25;6.13;;;3.43;;
495;SDS011;39559;48.630;9.162;2022-10-26T11:46:11;7.40;;;4.33;;
495;SDS011;39559;48.630;9.162;2022-10-26T11:54:18;4.50;;;3.70;;
495;SDS011;39559;48.630;9.162;2022-10-26T11:56:48;6.83;;;3.70;;
495;SDS011;39559;48.630;9.162;2022-10-26T11:59:18;7.50;;;3.70;;
495;SDS011;39559;48.630;9.162;2022-10-26T12:01:46;8.07;;;3.90;;
495;SDS011;39559;48.630;9.162;2022-10-26T12:04:16;7.37;;;3.37;;
495;SDS011;39559;48.630;9.162;2022-10-26T12:06:45;4.50;;;3.20;;
495;SDS011;39559;48.630;9.162;2022-10-26T12:09:18;4.90;;;3.33;;
495;SDS011;39559;48.630;9.162;2022-10-26T12:15:22;4.67;;;3.50;;
495;SDS011;39559;48.630;9.162;2022-10-26T12:17:53;8.20;;;3.60;;
495;SDS011;39559;48.630;9.162;2022-10-26T12:23:17;4.73;;;3.23;;
495;SDS011;39559;48.630;9.162;2022-10-26T12:25:43;7.00;;;4.03;;
495;SDS011;39559;48.630;9.162;2022-10-26T12:28:41;6.17;;;3.47;;
495;SDS011;39559;48.630;9.162;2022-10-26T12:33:56;4.50;;;3.70;;
495;SDS011;39559;48.630;9.162;2022-10-26T12:48:00;10.17;;;3.77;;
495;SDS011;39559;48.630;9.162;2022-10-26T12:58:35;5.30;;;3.50;;
495;SDS011;39559;48.630;9.162;2022-10-26T13:05:57;3.97;;;3.20;;
495;SDS011;39559;48.630;9.162;2022-10-26T13:08:37;6.73;;;4.87;;
495;SDS011;39559;48.630;9.162;2022-10-26T13:11:06;4.47;;;3.90;;
495;SDS011;39559;48.630;9.162;2022-10-26T13:13:40;5.10;;;3.50;;
495;SDS011;39559;48.630;9.162;2022-10-26T13:16:08;7.80;;;3.90;;
495;SDS011;39559;48.630;9.162;2022-10-26T13:18:42;5.50;;;3.63;;
495;SDS011;39559;48.630;9.162;2022-10-26T13:21:16;6.07;;;3.80;;
495;SDS011;39559;48.630;9.162;2022-10-26T13:23:46;6.80;;;3.73;;
495;SDS011;39559;48.630;9.162;2022-10-26T13:29:32;8.43;;;3.67;;
495;SDS011;39559;48.630;9.162;2022-10-26T13:32:39;7.57;;;4.70;;
495;SDS011;39559;48.630;9.162;2022-10-26T13:35:12;6.67;;;3.43;;
495;SDS011;39559;48.630;9.162;2022-10-26T13:37:43;5.30;;;3.57;;
495;SDS011;39559;48.630;9.162;2022-10-26T13:40:32;4.20;;;3.40;;
495;SDS011;39559;48.630;9.162;2022-10-26T13:43:04;5.50;;;3.63;;
495;SDS011;39559;48.630;9.162;2022-10-26T13:45:57;6.87;;;3.60;;
495;SDS011;39559;48.630;9.162;2022-10-26T13:51:13;11.10;;;4.83;;
495;SDS011;39559;48.630;9.162;2022-10-26T13:53:49;8.07;;;4.50;;
495;SDS011;39559;48.630;9.162;2022-10-26T13:56:38;6.90;;;3.67;;
495;SDS011;39559;48.630;9.162;2022-10-26T13:59:10;7.53;;;3.77;;
495;SDS011;39559;48.630;9.162;2022-10-26T14:01:37;5.37;;;3.97;;
495;SDS011;39559;48.630;9.162;2022-10-26T14:04:15;8.80;;;4.13;;
495;SDS011;39559;48.630;9.162;2022-10-26T14:06:51;5.97;;;3.63;;
495;SDS011;39559;48.630;9.162;2022-10-26T14:09:18;4.90;;;3.60;;
495;SDS011;39559;48.630;9.162;2022-10-26T14:11:52;5.87;;;3.50;;
495;SDS011;39559;48.630;9.162;2022-10-26T14:15:04;8.43;;;4.00;;
495;SDS011;39559;48.630;9.162;2022-10-26T14:17:32;5.77;;;3.63;;
495;SDS011;39559;48.630;9.162;2022-10-26T14:19:57;7.37;;;4.00;;
495;SDS011;39559;48.630;9.162;2022-10-26T14:22:24;7.00;;;4.23;;
495;SDS011;39559;48.630;9.162;2022-10-26T14:24:55;7.13;;;3.87;;
495;SDS011;39559;48.630;9.162;2022-10-26T14:27:32;10.10;;;4.10;;
495;SDS011;39559;48.630;9.162;2022-10-26T14:30:15;4.70;;;3.97;;
495;SDS011;39559;48.630;9.162;2022-10-26T14:32:50;6.87;;;3.90;;
495;SDS011;39559;48.630;9.162;2022-10-26T14:35:17;6.00;;;3.47;;
495;SDS011;39559;48.630;9.162;2022-10-26T14:38:58;5.33;;;3.53;;
495;SDS011;39559;48.630;9.162;2022-10-26T14:41:27;4.00;;;3.20;;
495;SDS011;39559;48.630;9.162;2022-10-26T14:43:55;6.47;;;3.47;;
495;SDS011;39559;48.630;9.162;2022-10-26T14:46:23;5.63;;;4.10;;
495;SDS011;39559;48.630;9.162;2022-10-26T14:48:54;5.83;;;3.43;;
495;SDS011;39559;48.630;9.162;2022-10-26T14:51:55;4.00;;;3.50;;
495;SDS011;39559;48.630;9.162;2022-10-26T14:54:23;5.50;;;3.97;;
495;SDS011;39559;48.630;9.162;2022-10-26T14:56:51;4.67;;;3.10;;
495;SDS011;39559;48.630;9.162;2022-10-26T15:02:59;4.60;;;3.37;;
495;SDS011;39559;48.630;9.162;2022-10-26T15:05:28;4.40;;;3.00;;
495;SDS011;39559;48.630;9.162;2022-10-26T15:07:57;14.33;;;4.43;;
495;SDS011;39559;48.630;9.162;2022-10-26T15:13:23;5.60;;;3.40;;
495;SDS011;39559;48.630;9.162;2022-10-26T15:18:46;5.83;;;3.50;;
495;SDS011;39559;48.630;9.162;2022-10-26T15:21:36;6.13;;;3.73;;
495;SDS011;39559;48.630;9.162;2022-10-26T15:24:11;4.87;;;3.27;;
495;SDS011;39559;48.630;9.162;2022-10-26T15:26:46;6.90;;;6.20;;
495;SDS011;39559;48.630;9.162;2022-10-26T15:32:00;13.30;;;8.70;;
495;SDS011;39559;48.630;9.162;2022-10-26T15:34:26;16.40;;;13.00;;
495;SDS011;39559;48.630;9.162;2022-10-26T15:36:52;16.83;;;9.43;;
495;SDS011;39559;48.630;9.162;2022-10-26T15:39:17;13.80;;;9.70;;
495;SDS011;39559;48.630;9.162;2022-10-26T15:41:46;19.60;;;12.53;;
495;SDS011;39559;48.630;9.162;2022-10-26T15:44:14;14.37;;;12.87;;
495;SDS011;39559;48.630;9.162;2022-10-26T15:46:44;13.87;;;10.20;;
495;SDS011;39559;48.630;9.162;2022-10-26T15:50:41;11.40;;;7.20;;
495;SDS011;39559;48.630;9.162;2022-10-26T15:53:07;17.73;;;12.17;;
495;SDS011;39559;48.630;9.162;2022-10-26T15:55:45;18.90;;;13.63;;
495;SDS011;39559;48.630;9.162;2022-10-26T15:58:12;27.47;;;22.00;;
495;SDS011;39559;48.630;9.162;2022-10-26T16:00:38;18.10;;;12.90;;
495;SDS011;39559;48.630;9.162;2022-10-26T16:03:04;22.47;;;13.90;;
495;SDS011;39559;48.630;9.162;2022-10-26T16:05:29;18.07;;;13.03;;
495;SDS011;39559;48.630;9.162;2022-10-26T16:07:55;10.50;;;7.30;;
495;SDS011;39559;48.630;9.162;2022-10-26T16:10:21;26.33;;;19.90;;
495;SDS011;39559;48.630;9.162;2022-10-26T16:14:37;45.22;;;26.00;;
495;SDS011;39559;48.630;9.162;2022-10-26T16:17:04;27.02;;;18.20;;
495;SDS011;39559;48.630;9.162;2022-10-26T16:19:31;14.55;;;9.27;;
495;SDS011;39559;48.630;9.162;2022-10-26T16:21:57;40.72;;;21.75;;
495;SDS011;39559;48.630;9.162;2022-10-26T16:24:24;44.78;;;27.88;;
495;SDS011;39559;48.630;9.162;2022-10-26T16:26:51;47.92;;;24.63;;
495;SDS011;39559;48.630;9.162;2022-10-26T16:29:16;29.60;;;19.80;;
495;SDS011;39559;48.630;9.162;2022-10-26T16:31:42;41.17;;;23.17;;
495;SDS011;39559;48.630;9.162;2022-10-26T16:34:07;81.00;;;39.90;;
495;SDS011;39559;48.630;9.162;2022-10-26T16:38:33;51.10;;;29.60;;
495;SDS011;39559;48.630;9.162;2022-10-26T16:41:05;63.07;;;35.07;;
495;SDS011;39559;48.630;9.162;2022-10-26T16:43:34;59.28;;;36.42;;
495;SDS011;39559;48.630;9.162;2022-10-26T16:46:19;57.38;;;35.63;;
495;SDS011;39559;48.630;9.162;2022-10-26T16:48:46;54.95;;;39.03;;
495;SDS011;39559;48.630;9.162;2022-10-26T16:51:14;30.02;;;20.60;;
495;SDS011;39559;48.630;9.162;2022-10-26T16:53:42;56.65;;;38.13;;
495;SDS011;39559;48.630;9.162;2022-10-26T16:56:11;57.07;;;40.70;;
495;SDS011;39559;48.630;9.162;2022-10-26T16:58:38;38.88;;;24.38;;
495;SDS011;39559;48.630;9.162;2022-10-26T17:02:29;75.78;;;47.40;;
495;SDS011;39559;48.630;9.162;2022-10-26T17:04:54;50.23;;;30.37;;
495;SDS011;39559;48.630;9.162;2022-10-26T17:07:20;59.30;;;33.80;;
495;SDS011;39559;48.630;9.162;2022-10-26T17:09:45;31.40;;;17.80;;
495;SDS011;39559;48.630;9.162;2022-10-26T17:12:11;25.80;;;16.00;;
495;SDS011;39559;48.630;9.162;2022-10-26T17:14:36;38.90;;;21.80;;
495;SDS011;39559;48.630;9.162;2022-10-26T17:17:02;18.40;;;14.38;;
495;SDS011;39559;48.630;9.162;2022-10-26T17:19:28;14.80;;;9.57;;
495;SDS011;39559;48.630;9.162;2022-10-26T17:21:53;44.13;;;28.20;;
495;SDS011;39559;48.630;9.162;2022-10-26T17:26:24;178.80;;;114.97;;
495;SDS011;39559;48.630;9.162;2022-10-26T17:28:51;39.55;;;28.83;;
495;SDS011;39559;48.630;9.162;2022-10-26T17:31:18;33.50;;;25.63;;
495;SDS011;39559;48.630;9.162;2022-10-26T17:33:44;49.88;;;34.00;;
495;SDS011;39559;48.630;9.162;2022-10-26T17:36:14;80.82;;;49.22;;
495;SDS011;39559;48.630;9.162;2022-10-26T17:38:41;18.67;;;12.32;;
495;SDS011;39559;48.630;9.162;2022-10-26T17:41:11;17.38;;;10.55;;
495;SDS011;39559;48.630;9.162;2022-10-26T17:43:38;11.48;;;7.18;;
495;SDS011;39559;48.630;9.162;2022-10-26T17:46:06;22.30;;;13.65;;
495;SDS011;39559;48.630;9.162;2022-10-26T17:50:20;37.65;;;28.60;;
495;SDS011;39559;48.630;9.162;2022-10-26T17:52:46;20.50;;;14.53;;
495;SDS011;39559;48.630;9.162;2022-10-26T17:55:12;81.27;;;61.80;;
495;SDS011;39559;48.630;9.162;2022-10-26T17:57:37;54.13;;;42.80;;
495;SDS011;39559;48.630;9.162;2022-10-26T18:00:03;26.37;;;23.17;;
495;SDS011;39559;48.630;9.162;2022-10-26T18:02:29;42.05;;;32.60;;
495;SDS011;39559;48.630;9.162;2022-10-26T18:04:54;69.73;;;51.43;;
495;SDS011;39559;48.630;9.162;2022-10-26T18:07:20;25.63;;;20.70;;
495;SDS011;39559;48.630;9.162;2022-10-26T18:09:45;21.63;;;16.23;;
495;SDS011;39559;48.630;9.162;2022-10-26T18:14:16;32.65;;;23.17;;
495;SDS011;39559;48.630;9.162;2022-10-26T18:16:41;36.67;;;26.87;;
495;SDS011;39559;48.630;9.162;2022-10-26T18:19:08;83.53;;;53.50;;
495;SDS011;39559;48.630;9.162;2022-10-26T18:21:34;81.25;;;53.00;;
495;SDS011;39559;48.630;9.162;2022-10-26T18:24:04;46.50;;;31.83;;
495;SDS011;39559;48.630;9.162;2022-10-26T18:26:30;32.75;;;24.92;;